createdAt,value
2018-05-02T00:00:54.648Z,4.60
2018-05-02T00:03:22.549Z,3.73
2018-05-02T00:05:50.445Z,4.90
2018-05-02T00:08:18.330Z,3.40
2018-05-02T00:10:46.242Z,3.80
2018-05-02T00:13:14.152Z,4.10
2018-05-02T00:15:42.043Z,4.20
2018-05-02T00:18:10.020Z,3.47
2018-05-02T00:20:36.087Z,4.20
2018-05-02T00:23:03.984Z,4.97
2018-05-02T00:25:30.130Z,3.90
2018-05-02T00:27:58.030Z,4.10
2018-05-02T00:30:24.226Z,4.17
2018-05-02T00:32:52.134Z,4.57
2018-05-02T00:35:18.268Z,3.73
2018-05-02T00:37:46.161Z,3.70
2018-05-02T00:40:14.045Z,4.67
2018-05-02T00:42:41.983Z,4.27
2018-05-02T00:45:09.904Z,4.47
2018-05-02T00:47:37.820Z,3.90
2018-05-02T00:50:05.758Z,4.70
2018-05-02T00:52:33.655Z,4.63
2018-05-02T00:55:01.567Z,4.40
2018-05-02T00:57:29.462Z,4.30
2018-05-02T00:59:57.361Z,4.40
2018-05-02T01:02:25.237Z,4.20
2018-05-02T01:04:53.142Z,3.57
2018-05-02T01:07:21.026Z,3.43
2018-05-02T01:09:48.921Z,3.93
2018-05-02T01:12:16.870Z,4.27
2018-05-02T01:14:44.815Z,4.20
2018-05-02T01:17:12.754Z,3.63
2018-05-02T01:19:40.937Z,4.90
2018-05-02T01:22:08.871Z,4.63
2018-05-02T01:24:36.769Z,4.50
2018-05-02T01:27:04.661Z,4.17
2018-05-02T01:29:32.544Z,5.07
2018-05-02T01:32:00.634Z,5.20
2018-05-02T01:34:28.545Z,4.90
2018-05-02T01:36:56.442Z,4.80
2018-05-02T01:39:24.357Z,7.67
2018-05-02T01:41:52.266Z,5.57
2018-05-02T01:44:20.177Z,5.57
2018-05-02T01:46:48.066Z,5.20
2018-05-02T01:49:22.900Z,4.30
2018-05-02T01:51:50.818Z,4.50
2018-05-02T01:54:18.720Z,4.60
2018-05-02T01:56:46.618Z,5.10
2018-05-02T01:59:14.510Z,4.63
2018-05-02T02:01:42.422Z,4.10
2018-05-02T02:04:10.341Z,3.73
2018-05-02T02:06:38.229Z,4.80
2018-05-02T02:09:06.141Z,4.77
2018-05-02T02:11:34.042Z,4.10
2018-05-02T02:14:01.951Z,4.80
2018-05-02T02:16:29.851Z,4.13
2018-05-02T02:18:57.755Z,4.27
2018-05-02T02:21:25.677Z,4.63
2018-05-02T02:23:53.583Z,5.63
2018-05-02T02:26:21.500Z,4.57
2018-05-02T02:28:49.437Z,4.53
2018-05-02T02:31:17.345Z,5.30
2018-05-02T02:33:45.561Z,4.87
2018-05-02T02:36:13.466Z,4.90
2018-05-02T02:38:41.373Z,4.53
2018-05-02T02:41:09.277Z,4.40
2018-05-02T02:43:37.187Z,4.10
2018-05-02T02:46:05.089Z,4.60
2018-05-02T02:48:32.998Z,5.17
2018-05-02T02:51:00.898Z,4.23
2018-05-02T02:53:28.819Z,4.50
2018-05-02T02:55:56.726Z,4.27
2018-05-02T02:58:24.629Z,4.73
2018-05-02T03:00:52.537Z,4.00
2018-05-02T03:03:20.438Z,4.30
2018-05-02T03:05:48.332Z,4.43
2018-05-02T03:08:16.242Z,4.70
2018-05-02T03:10:44.210Z,4.77
2018-05-02T03:13:12.107Z,4.80
2018-05-02T03:15:40.014Z,4.70
2018-05-02T03:18:07.922Z,4.50
2018-05-02T03:20:36.153Z,5.13
2018-05-02T03:23:04.049Z,5.00
2018-05-02T03:25:31.969Z,4.07
2018-05-02T03:27:59.893Z,4.80
2018-05-02T03:30:27.787Z,4.00
2018-05-02T03:32:55.681Z,4.40
2018-05-02T03:35:23.741Z,5.40
2018-05-02T03:37:51.674Z,3.40
2018-05-02T03:40:19.612Z,4.00
2018-05-02T03:42:47.501Z,3.93
2018-05-02T03:45:15.433Z,4.37
2018-05-02T03:47:43.357Z,4.40
2018-05-02T03:50:11.324Z,3.67
2018-05-02T03:52:39.233Z,4.70
2018-05-02T03:55:07.142Z,3.83
2018-05-02T03:57:35.030Z,2.90
2018-05-02T04:00:09.042Z,4.30
2018-05-02T04:02:43.022Z,3.77
2018-05-02T04:05:17.127Z,3.63
2018-05-02T04:07:45.028Z,6.10
2018-05-02T04:12:35.603Z,9.27
2018-05-02T04:15:03.533Z,11.93
2018-05-02T04:17:31.431Z,12.40
2018-05-02T04:19:59.358Z,12.80
2018-05-02T04:22:27.257Z,11.83
2018-05-02T04:24:55.145Z,11.30
2018-05-02T04:27:23.034Z,11.80
2018-05-02T04:29:50.969Z,10.60
2018-05-02T04:32:18.854Z,9.20
2018-05-02T04:34:46.749Z,8.70
2018-05-02T04:37:14.865Z,7.60
2018-05-02T04:39:42.769Z,6.13
2018-05-02T04:42:10.685Z,6.60
2018-05-02T04:44:38.594Z,7.03
2018-05-02T04:47:06.524Z,5.20
2018-05-02T04:49:34.509Z,5.23
2018-05-02T04:52:02.434Z,4.90
2018-05-02T04:54:30.345Z,4.50
2018-05-02T04:56:58.241Z,4.40
2018-05-02T04:59:26.240Z,4.57
2018-05-02T05:01:54.126Z,4.73
2018-05-02T05:04:22.093Z,4.80
2018-05-02T05:06:50.013Z,4.20
2018-05-02T05:09:17.932Z,5.43
2018-05-02T05:11:45.838Z,4.80
2018-05-02T05:14:13.762Z,5.17
2018-05-02T05:16:41.666Z,3.90
2018-05-02T05:19:09.594Z,4.43
2018-05-02T05:21:37.516Z,3.57
2018-05-02T05:24:05.437Z,4.03
2018-05-02T05:26:33.358Z,3.60
2018-05-02T05:29:01.237Z,3.70
2018-05-02T05:31:29.148Z,4.47
2018-05-02T05:33:57.062Z,4.23
2018-05-02T05:36:24.967Z,4.00
2018-05-02T05:38:53.103Z,4.13
2018-05-02T05:41:21.068Z,4.10
2018-05-02T05:43:48.997Z,3.43
2018-05-02T05:46:17.177Z,3.33
2018-05-02T05:48:45.081Z,4.73
2018-05-02T05:51:13.010Z,3.27
2018-05-02T05:53:40.925Z,3.00
2018-05-02T05:56:08.854Z,3.40
2018-05-02T05:58:36.754Z,3.83
2018-05-02T06:01:04.673Z,3.67
2018-05-02T06:03:32.581Z,4.93
2018-05-02T06:06:00.482Z,3.50
2018-05-02T06:08:28.381Z,3.33
2018-05-02T06:10:56.297Z,3.23
2018-05-02T06:13:24.242Z,2.87
2018-05-02T06:15:52.159Z,3.50
2018-05-02T06:18:20.101Z,3.10
2018-05-02T06:20:47.981Z,3.80
2018-05-02T06:23:15.885Z,3.57
2018-05-02T06:25:43.794Z,3.87
2018-05-02T06:28:11.702Z,3.23
2018-05-02T06:30:39.618Z,4.13
2018-05-02T06:33:07.523Z,2.97
2018-05-02T06:35:35.441Z,3.17
2018-05-02T06:38:03.368Z,3.17
2018-05-02T06:40:31.601Z,2.80
2018-05-02T06:42:59.561Z,2.50
2018-05-02T06:45:27.487Z,2.77
2018-05-02T06:47:55.410Z,2.90
2018-05-02T06:50:23.431Z,2.63
2018-05-02T06:52:51.286Z,2.47
2018-05-02T06:55:19.192Z,2.50
2018-05-02T06:57:47.126Z,2.30
2018-05-02T07:00:15.037Z,2.97
2018-05-02T07:02:42.937Z,2.50
2018-05-02T07:05:10.833Z,2.47
2018-05-02T07:07:38.762Z,2.90
2018-05-02T07:10:06.740Z,2.90
2018-05-02T07:12:34.601Z,2.87
2018-05-02T07:15:02.514Z,3.33
2018-05-02T07:17:30.610Z,3.13
2018-05-02T07:19:58.525Z,3.10
2018-05-02T07:22:26.446Z,2.87
2018-05-02T07:24:54.338Z,2.50
2018-05-02T07:27:22.278Z,2.73
2018-05-02T07:29:50.222Z,2.50
2018-05-02T07:32:18.110Z,3.40
2018-05-02T07:34:46.033Z,2.97
2018-05-02T07:37:13.936Z,2.47
2018-05-02T07:39:41.898Z,2.90
2018-05-02T07:42:09.981Z,3.00
2018-05-02T07:44:37.889Z,3.10
2018-05-02T07:47:05.789Z,2.97
2018-05-02T07:49:33.690Z,4.07
2018-05-02T07:52:01.582Z,3.50
2018-05-02T07:54:29.510Z,4.40
2018-05-02T07:56:57.420Z,4.20
2018-05-02T07:59:25.371Z,4.20
2018-05-02T08:01:53.322Z,4.50
2018-05-02T08:04:21.293Z,4.50
2018-05-02T08:06:49.182Z,4.43
2018-05-02T08:09:17.079Z,5.57
2018-05-02T08:11:45.044Z,5.60
2018-05-02T08:14:12.958Z,4.67
2018-05-02T08:16:40.869Z,4.53
2018-05-02T08:19:08.782Z,5.50
2018-05-02T08:21:36.678Z,4.80
2018-05-02T08:24:04.562Z,4.70
2018-05-02T08:26:32.451Z,4.73
2018-05-02T08:29:00.377Z,5.20
2018-05-02T08:31:28.278Z,5.90
2018-05-02T08:33:56.229Z,5.60
2018-05-02T08:36:24.173Z,5.70
2018-05-02T08:38:52.120Z,4.93
2018-05-02T08:41:20.057Z,5.70
2018-05-02T08:43:48.201Z,6.83
2018-05-02T08:46:16.105Z,6.27
2018-05-02T08:48:44.014Z,6.47
2018-05-02T08:51:11.918Z,5.53
2018-05-02T08:53:39.806Z,6.20
2018-05-02T08:56:07.702Z,7.07
2018-05-02T08:58:35.655Z,6.87
2018-05-02T09:01:03.545Z,7.03
2018-05-02T09:03:31.453Z,7.27
2018-05-02T09:05:59.373Z,7.40
2018-05-02T09:08:27.265Z,7.10
2018-05-02T09:10:55.194Z,6.33
2018-05-02T09:13:23.109Z,7.13
2018-05-02T09:15:51.001Z,8.20
2018-05-02T09:18:18.902Z,6.90
2018-05-02T09:20:46.809Z,7.70
2018-05-02T09:23:14.713Z,6.30
2018-05-02T09:25:42.675Z,6.97
2018-05-02T09:28:10.525Z,7.70
2018-05-02T09:30:38.418Z,6.73
2018-05-02T09:33:06.308Z,6.60
2018-05-02T09:35:34.298Z,6.07
2018-05-02T09:38:02.125Z,6.67
2018-05-02T09:40:30.050Z,6.10
2018-05-02T09:42:57.972Z,5.47
2018-05-02T09:45:26.161Z,5.80
2018-05-02T09:47:54.057Z,6.23
2018-05-02T09:50:21.957Z,5.93
2018-05-02T09:52:49.846Z,7.47
2018-05-02T09:55:17.756Z,8.17
2018-05-02T09:57:45.653Z,6.20
2018-05-02T10:00:13.587Z,8.63
2018-05-02T10:02:41.494Z,5.10
2018-05-02T10:05:09.391Z,5.80
2018-05-02T10:07:37.301Z,5.63
2018-05-02T10:10:05.194Z,5.40
2018-05-02T10:12:33.111Z,5.93
2018-05-02T10:15:01.002Z,5.70
2018-05-02T10:17:28.936Z,5.83
2018-05-02T10:19:56.836Z,5.33
2018-05-02T10:22:24.803Z,5.10
2018-05-02T10:24:52.721Z,5.47
2018-05-02T10:27:20.629Z,5.60
2018-05-02T10:29:48.538Z,5.70
2018-05-02T10:32:16.433Z,4.60
2018-05-02T10:34:44.345Z,5.80
2018-05-02T10:37:12.270Z,5.20
2018-05-02T10:39:40.204Z,5.10
2018-05-02T10:42:08.117Z,5.80
2018-05-02T10:44:36.028Z,5.53
2018-05-02T10:47:04.181Z,5.57
2018-05-02T10:49:32.105Z,4.90
2018-05-02T10:52:00.007Z,5.70
2018-05-02T10:54:27.889Z,5.73
2018-05-02T10:56:55.806Z,5.57
2018-05-02T10:59:23.713Z,6.17
2018-05-02T11:01:51.642Z,5.70
2018-05-02T11:04:19.571Z,7.03
2018-05-02T11:06:47.498Z,6.67
2018-05-02T11:09:15.433Z,6.43
2018-05-02T11:11:43.333Z,6.60
2018-05-02T11:14:11.237Z,6.40
2018-05-02T11:16:39.142Z,6.00
2018-05-02T11:19:07.228Z,6.30
2018-05-02T11:21:35.126Z,6.07
2018-05-02T11:24:03.028Z,6.20
2018-05-02T11:26:30.937Z,5.93
2018-05-02T11:28:58.837Z,5.63
2018-05-02T11:31:26.737Z,6.20
2018-05-02T11:33:54.625Z,5.20
2018-05-02T11:36:22.526Z,5.00
2018-05-02T11:38:50.431Z,5.30
2018-05-02T11:41:18.354Z,5.00
2018-05-02T11:43:46.289Z,5.87
2018-05-02T11:46:14.230Z,5.70
2018-05-02T11:48:42.394Z,5.10
2018-05-02T11:51:10.357Z,6.00
2018-05-02T11:53:38.290Z,5.40
2018-05-02T11:56:06.177Z,5.00
2018-05-02T11:58:34.110Z,3.90
2018-05-02T12:01:02.014Z,3.90
2018-05-02T12:03:29.916Z,4.23
2018-05-02T12:05:58.098Z,4.93
2018-05-02T12:08:26.055Z,4.43
2018-05-02T12:10:54.010Z,5.67
2018-05-02T12:13:21.917Z,6.17
2018-05-02T12:15:49.808Z,6.20
2018-05-02T12:18:19.729Z,5.00
2018-05-02T12:20:47.695Z,5.00
2018-05-02T12:23:15.611Z,6.00
2018-05-02T12:25:43.505Z,5.17
2018-05-02T12:28:11.405Z,4.90
2018-05-02T12:30:39.298Z,4.90
2018-05-02T12:33:07.214Z,5.87
2018-05-02T12:35:35.121Z,4.83
2018-05-02T12:38:03.046Z,5.30
2018-05-02T12:40:30.971Z,5.23
2018-05-02T12:42:58.882Z,5.80
2018-05-02T12:45:27.293Z,6.10
2018-05-02T12:47:55.252Z,5.30
2018-05-02T12:50:23.437Z,5.20
2018-05-02T12:52:51.415Z,6.03
2018-05-02T12:55:19.355Z,5.53
2018-05-02T12:57:47.274Z,6.00
2018-05-02T13:00:15.185Z,6.50
2018-05-02T13:02:43.086Z,5.73
2018-05-02T13:05:10.984Z,5.30
2018-05-02T13:07:38.889Z,5.67
2018-05-02T13:10:06.787Z,4.90
2018-05-02T13:12:34.729Z,5.20
2018-05-02T13:15:02.679Z,5.20
2018-05-02T13:17:30.598Z,4.13
2018-05-02T13:19:58.517Z,4.73
2018-05-02T13:22:26.666Z,5.70
2018-05-02T13:24:54.580Z,4.60
2018-05-02T13:27:22.493Z,4.60
2018-05-02T13:29:50.394Z,3.80
2018-05-02T13:32:18.302Z,4.77
2018-05-02T13:34:46.221Z,4.60
2018-05-02T13:37:14.131Z,5.73
2018-05-02T13:39:42.033Z,6.07
2018-05-02T13:42:09.990Z,6.27
2018-05-02T13:44:37.916Z,6.50
2018-05-02T13:47:05.881Z,5.30
2018-05-02T13:49:33.781Z,5.33
2018-05-02T13:52:01.847Z,6.67
2018-05-02T13:54:29.762Z,5.23
2018-05-02T13:56:57.681Z,5.90
2018-05-02T13:59:25.635Z,5.50
2018-05-02T14:01:53.501Z,5.63
2018-05-02T14:04:21.421Z,5.33
2018-05-02T14:06:49.335Z,6.00
2018-05-02T14:09:17.302Z,6.60
2018-05-02T14:11:45.241Z,6.20
2018-05-02T14:14:13.152Z,6.27
2018-05-02T14:16:41.061Z,6.00
2018-05-02T14:19:08.981Z,5.80
2018-05-02T14:21:36.858Z,5.00
2018-05-02T14:24:04.754Z,5.60
2018-05-02T14:26:32.648Z,6.93
2018-05-02T14:29:00.533Z,6.13
2018-05-02T14:31:28.502Z,6.37
2018-05-02T14:33:56.406Z,6.47
2018-05-02T14:36:24.294Z,6.30
2018-05-02T14:38:52.216Z,5.10
2018-05-02T14:41:20.111Z,6.23
2018-05-02T14:43:48.027Z,6.67
2018-05-02T14:46:15.922Z,6.30
2018-05-02T14:48:43.851Z,5.60
2018-05-02T14:51:11.758Z,5.30
2018-05-02T14:53:39.839Z,4.53
2018-05-02T14:56:07.733Z,5.10
2018-05-02T14:58:35.634Z,5.40
2018-05-02T15:01:03.534Z,5.50
2018-05-02T15:03:31.475Z,5.60
2018-05-02T15:05:59.401Z,5.30
2018-05-02T15:08:27.292Z,6.73
2018-05-02T15:10:55.193Z,5.10
2018-05-02T15:13:23.086Z,5.70
2018-05-02T15:15:50.993Z,5.27
2018-05-02T15:18:18.894Z,5.10
2018-05-02T15:20:46.789Z,4.57
2018-05-02T15:23:14.713Z,4.80
2018-05-02T15:25:42.606Z,4.40
2018-05-02T15:28:11.522Z,4.63
2018-05-02T15:30:39.463Z,5.10
2018-05-02T15:33:07.369Z,4.10
2018-05-02T15:35:35.450Z,4.90
2018-05-02T15:38:03.370Z,4.00
2018-05-02T15:40:31.289Z,4.57
2018-05-02T15:42:59.198Z,4.60
2018-05-02T15:45:27.090Z,4.00
2018-05-02T15:47:54.973Z,4.30
2018-05-02T15:50:22.869Z,4.57
2018-05-02T15:52:50.998Z,4.30
2018-05-02T15:55:19.116Z,3.80
2018-05-02T15:57:47.048Z,3.97
2018-05-02T16:00:14.994Z,4.47
2018-05-02T16:02:42.881Z,4.00
2018-05-02T16:05:10.775Z,5.33
2018-05-02T16:07:38.673Z,4.60
2018-05-02T16:10:06.580Z,3.90
2018-05-02T16:12:34.526Z,4.30
2018-05-02T16:15:02.425Z,4.70
2018-05-02T16:17:30.328Z,4.67
2018-05-02T16:19:58.236Z,4.80
2018-05-02T16:22:26.149Z,4.73
2018-05-02T16:24:54.086Z,4.37
2018-05-02T16:27:22.025Z,4.33
2018-05-02T16:29:49.958Z,4.60
2018-05-02T16:32:17.850Z,5.27
2018-05-02T16:34:45.781Z,4.87
2018-05-02T16:37:13.675Z,5.83
2018-05-02T16:39:41.606Z,4.80
2018-05-02T16:42:09.509Z,5.23
2018-05-02T16:44:37.413Z,4.93
2018-05-02T16:47:05.354Z,4.63
2018-05-02T16:49:33.266Z,5.70
2018-05-02T16:52:01.199Z,4.30
2018-05-02T16:54:29.118Z,5.13
2018-05-02T16:56:57.209Z,4.90
2018-05-02T16:59:25.109Z,4.90
2018-05-02T17:01:52.992Z,4.80
2018-05-02T17:04:21.064Z,3.90
2018-05-02T17:06:49.098Z,5.53
2018-05-02T17:09:16.890Z,4.40
2018-05-02T17:11:44.794Z,4.20
2018-05-02T17:14:12.714Z,4.20
2018-05-02T17:16:40.667Z,4.70
2018-05-02T17:19:08.557Z,4.37
2018-05-02T17:21:36.453Z,4.70
2018-05-02T17:24:04.434Z,4.23
2018-05-02T17:26:32.412Z,4.33
2018-05-02T17:29:00.330Z,4.00
2018-05-02T17:31:28.246Z,4.20
2018-05-02T17:33:56.181Z,4.23
2018-05-02T17:36:24.110Z,3.67
2018-05-02T17:38:52.065Z,4.77
2018-05-02T17:41:20.002Z,4.97
2018-05-02T17:43:47.930Z,4.87
2018-05-02T17:46:15.810Z,4.63
2018-05-02T17:48:43.741Z,5.20
2018-05-02T17:51:11.717Z,4.70
2018-05-02T17:53:39.641Z,4.80
2018-05-02T17:56:07.625Z,5.20
2018-05-02T17:58:35.770Z,5.43
2018-05-02T18:01:03.732Z,4.90
2018-05-02T18:03:31.673Z,5.53
2018-05-02T18:05:59.558Z,5.30
2018-05-02T18:08:27.470Z,5.70
2018-05-02T18:10:55.418Z,5.23
2018-05-02T18:13:23.313Z,4.83
2018-05-02T18:15:51.221Z,4.90
2018-05-02T18:18:19.151Z,5.17
2018-05-02T18:20:47.059Z,5.90
2018-05-02T18:23:14.970Z,5.00
2018-05-02T18:25:42.861Z,4.60
2018-05-02T18:28:10.793Z,5.10
2018-05-02T18:30:38.673Z,5.23
2018-05-02T18:33:06.646Z,4.40
2018-05-02T18:35:34.666Z,4.97
2018-05-02T18:38:02.623Z,5.30
2018-05-02T18:40:30.585Z,4.90
2018-05-02T18:42:58.530Z,5.57
2018-05-02T18:45:26.434Z,4.47
2018-05-02T18:47:54.333Z,4.40
2018-05-02T18:50:22.234Z,5.80
2018-05-02T18:52:50.164Z,4.93
2018-05-02T18:55:18.063Z,5.03
2018-05-02T18:57:45.969Z,4.67
2018-05-02T19:00:14.111Z,5.80
2018-05-02T19:02:42.013Z,5.20
2018-05-02T19:05:09.913Z,4.80
2018-05-02T19:07:37.807Z,5.47
2018-05-02T19:10:05.727Z,5.37
2018-05-02T19:12:33.617Z,5.20
2018-05-02T19:15:01.533Z,5.47
2018-05-02T19:17:29.518Z,4.70
2018-05-02T19:20:03.546Z,5.60
2018-05-02T19:22:31.450Z,5.00
2018-05-02T19:25:05.566Z,5.27
2018-05-02T19:27:33.469Z,5.20
2018-05-02T19:30:01.381Z,4.47
2018-05-02T19:32:35.530Z,5.10
2018-05-02T19:35:03.454Z,4.90
2018-05-02T19:37:31.354Z,4.70
2018-05-02T19:40:05.529Z,6.13
2018-05-02T19:42:39.695Z,4.57
2018-05-02T19:45:07.627Z,6.13
2018-05-02T19:47:35.517Z,5.97
2018-05-02T19:50:03.438Z,6.20
2018-05-02T19:52:37.603Z,5.47
2018-05-02T19:55:05.488Z,4.93
2018-05-02T19:57:33.379Z,5.57
2018-05-02T20:00:01.278Z,5.50
2018-05-02T20:02:35.453Z,5.00
2018-05-02T20:05:03.384Z,5.63
2018-05-02T20:07:37.414Z,5.70
2018-05-02T20:10:11.329Z,4.93
2018-05-02T20:12:45.263Z,5.87
2018-05-02T20:15:13.156Z,5.47
2018-05-02T20:17:41.054Z,4.93
2018-05-02T20:20:08.986Z,4.90
2018-05-02T20:22:36.881Z,5.20
2018-05-02T20:25:04.798Z,5.20
2018-05-02T20:27:32.714Z,5.60
2018-05-02T20:30:00.805Z,5.23
2018-05-02T20:32:28.710Z,5.33
2018-05-02T20:34:56.626Z,4.77
2018-05-02T20:37:24.609Z,5.07
2018-05-02T20:39:52.505Z,4.70
2018-05-02T20:42:20.405Z,5.60
2018-05-02T20:44:48.301Z,6.63
2018-05-02T20:47:16.218Z,5.20
2018-05-02T20:49:44.101Z,5.50
2018-05-02T20:52:12.026Z,5.40
2018-05-02T20:54:39.984Z,5.70
2018-05-02T20:57:07.910Z,5.90
2018-05-02T20:59:35.793Z,5.60
2018-05-02T21:02:03.716Z,5.17
2018-05-02T21:04:31.867Z,5.13
2018-05-02T21:06:59.841Z,5.70
2018-05-02T21:09:27.761Z,5.20
2018-05-02T21:11:55.649Z,5.97
2018-05-02T21:14:23.569Z,5.27
2018-05-02T21:16:51.463Z,5.97
2018-05-02T21:19:19.369Z,4.97
2018-05-02T21:21:47.547Z,4.73
2018-05-02T21:24:15.445Z,5.30
2018-05-02T21:26:43.349Z,5.63
2018-05-02T21:29:11.249Z,4.97
2018-05-02T21:31:39.138Z,6.13
2018-05-02T21:34:07.066Z,5.60
2018-05-02T21:36:35.512Z,5.40
2018-05-02T21:39:03.422Z,5.90
2018-05-02T21:41:31.329Z,5.80
2018-05-02T21:43:59.223Z,5.27
2018-05-02T21:46:27.118Z,5.23
2018-05-02T21:48:55.014Z,5.50
2018-05-02T21:51:22.910Z,6.17
2018-05-02T21:53:50.821Z,5.53
2018-05-02T21:56:18.750Z,5.53
2018-05-02T21:58:46.658Z,5.50
2018-05-02T22:01:14.566Z,5.20
2018-05-02T22:03:42.466Z,5.20
2018-05-02T22:06:10.620Z,6.10
2018-05-02T22:08:38.584Z,5.93
2018-05-02T22:11:06.490Z,5.50
2018-05-02T22:13:34.389Z,4.87
2018-05-02T22:16:02.300Z,5.67
2018-05-02T22:18:30.198Z,5.60
2018-05-02T22:20:58.117Z,5.87
2018-05-02T22:23:26.093Z,4.43
2018-05-02T22:25:53.988Z,6.40
2018-05-02T22:28:21.926Z,5.27
2018-05-02T22:30:49.838Z,5.70
2018-05-02T22:33:17.737Z,5.60
2018-05-02T22:35:45.641Z,5.67
2018-05-02T22:38:13.582Z,5.63
2018-05-02T22:40:41.494Z,5.70
2018-05-02T22:43:09.386Z,5.33
2018-05-02T22:45:37.282Z,4.90
2018-05-02T22:48:05.180Z,5.80
2018-05-02T22:50:33.136Z,5.47
2018-05-02T22:53:01.058Z,5.23
2018-05-02T22:55:28.952Z,4.50
2018-05-02T22:57:56.857Z,5.30
2018-05-02T23:00:24.793Z,5.60
2018-05-02T23:02:52.694Z,5.90
2018-05-02T23:05:20.623Z,5.77
2018-05-02T23:07:48.924Z,5.73
2018-05-02T23:10:16.886Z,5.50
2018-05-02T23:12:44.830Z,6.63
2018-05-02T23:15:12.725Z,5.50
2018-05-02T23:17:40.635Z,5.13
2018-05-02T23:20:08.568Z,5.93
2018-05-02T23:22:36.502Z,6.80
2018-05-02T23:25:04.433Z,6.90
2018-05-02T23:27:32.330Z,6.10
2018-05-02T23:30:00.229Z,5.47
2018-05-02T23:32:28.129Z,5.57
2018-05-02T23:34:56.038Z,5.90
2018-05-02T23:37:23.930Z,5.80
2018-05-02T23:39:51.865Z,5.50
2018-05-02T23:42:19.877Z,5.90
2018-05-02T23:44:47.766Z,5.80
2018-05-02T23:47:15.665Z,5.90
2018-05-02T23:49:43.565Z,5.13
2018-05-02T23:52:11.452Z,6.50
2018-05-02T23:54:39.345Z,5.27
2018-05-02T23:57:07.275Z,5.23
2018-05-02T23:59:35.207Z,6.13
